createdAt,value
2023-04-15T00:01:08.191Z,6.65
2023-04-15T00:03:35.596Z,6.65
2023-04-15T00:06:03.735Z,6.64
2023-04-15T00:08:31.001Z,6.61
2023-04-15T00:11:02.933Z,6.56
2023-04-15T00:13:30.175Z,6.55
2023-04-15T00:15:57.430Z,6.53
2023-04-15T00:18:24.969Z,6.52
2023-04-15T00:20:52.638Z,6.53
2023-04-15T00:23:19.700Z,6.50
2023-04-15T00:25:47.082Z,6.46
2023-04-15T00:28:14.189Z,6.40
2023-04-15T00:30:41.731Z,6.41
2023-04-15T00:33:09.869Z,6.36
2023-04-15T00:35:37.608Z,6.32
2023-04-15T00:38:06.055Z,6.27
2023-04-15T00:40:33.731Z,6.26
2023-04-15T00:43:00.833Z,6.20
2023-04-15T00:45:30.804Z,6.19
2023-04-15T00:47:58.833Z,6.17
2023-04-15T00:50:25.808Z,6.14
2023-04-15T00:52:52.730Z,6.13
2023-04-15T00:55:20.456Z,6.14
2023-04-15T00:57:47.398Z,6.13
2023-04-15T01:00:14.539Z,6.14
2023-04-15T01:02:41.606Z,6.15
2023-04-15T01:05:08.717Z,6.14
2023-04-15T01:07:35.939Z,6.10
2023-04-15T01:10:04.716Z,6.07
2023-04-15T01:12:34.363Z,6.03
2023-04-15T01:15:02.374Z,6.04
2023-04-15T01:17:30.374Z,6.02
2023-04-15T01:19:58.115Z,6.01
2023-04-15T01:22:26.986Z,6.04
2023-04-15T01:25:06.434Z,6.03
2023-04-15T01:27:35.495Z,6.04
2023-04-15T01:30:05.368Z,6.03
2023-04-15T01:32:33.321Z,6.04
2023-04-15T01:35:00.526Z,6.02
2023-04-15T01:37:27.921Z,6.00
2023-04-15T01:39:57.520Z,6.03
2023-04-15T01:42:27.889Z,6.02
2023-04-15T01:44:55.395Z,6.00
2023-04-15T01:47:22.681Z,6.00
2023-04-15T01:49:50.318Z,5.98
2023-04-15T01:52:17.638Z,5.98
2023-04-15T01:54:45.097Z,5.93
2023-04-15T01:57:12.990Z,5.88
2023-04-15T01:59:40.192Z,5.88
2023-04-15T02:02:07.678Z,5.88
2023-04-15T02:04:35.081Z,5.89
2023-04-15T02:07:02.553Z,5.87
2023-04-15T02:09:31.300Z,5.84
2023-04-15T02:11:58.446Z,5.81
2023-04-15T02:14:25.677Z,5.79
2023-04-15T02:16:55.058Z,5.78
2023-04-15T02:19:22.212Z,5.80
2023-04-15T02:21:49.088Z,5.79
2023-04-15T02:24:18.136Z,5.78
2023-04-15T02:26:45.478Z,5.77
2023-04-15T02:29:12.625Z,5.78
2023-04-15T02:31:42.383Z,5.73
2023-04-15T02:34:09.508Z,5.70
2023-04-15T02:36:36.612Z,5.67
2023-04-15T02:39:05.561Z,5.64
2023-04-15T02:41:32.777Z,5.64
2023-04-15T02:43:59.728Z,5.60
2023-04-15T02:46:28.240Z,5.57
2023-04-15T02:48:55.770Z,5.50
2023-04-15T02:51:24.761Z,5.44
2023-04-15T02:53:51.857Z,5.41
2023-04-15T02:56:19.924Z,5.43
2023-04-15T02:58:50.632Z,5.45
2023-04-15T03:01:18.030Z,5.43
2023-04-15T03:03:45.369Z,5.45
2023-04-15T03:06:12.553Z,5.42
2023-04-15T03:08:39.569Z,5.42
2023-04-15T03:11:07.789Z,5.39
2023-04-15T03:13:36.513Z,5.35
2023-04-15T03:16:10.923Z,5.32
2023-04-15T03:18:38.500Z,5.33
2023-04-15T03:21:06.321Z,5.31
2023-04-15T03:23:36.464Z,5.27
2023-04-15T03:26:04.436Z,5.25
2023-04-15T03:28:32.993Z,5.23
2023-04-15T03:31:00.894Z,5.24
2023-04-15T03:33:27.848Z,5.24
2023-04-15T03:35:55.033Z,5.20
2023-04-15T03:38:22.292Z,5.18
2023-04-15T03:40:49.117Z,5.16
2023-04-15T03:43:16.726Z,5.15
2023-04-15T03:45:43.946Z,5.10
2023-04-15T03:48:17.773Z,5.07
2023-04-15T03:50:46.362Z,5.05
2023-04-15T03:53:13.292Z,5.00
2023-04-15T03:55:40.286Z,4.99
2023-04-15T03:58:07.521Z,5.03
2023-04-15T04:00:34.666Z,4.99
2023-04-15T04:03:01.853Z,4.97
2023-04-15T04:05:28.944Z,5.00
2023-04-15T04:07:55.956Z,4.98
2023-04-15T04:10:23.235Z,4.98
2023-04-15T04:12:50.344Z,4.92
2023-04-15T04:15:17.325Z,4.85
2023-04-15T04:17:44.324Z,4.79
2023-04-15T04:20:11.455Z,4.75
2023-04-15T04:22:42.435Z,4.73
2023-04-15T04:25:10.527Z,4.70
2023-04-15T04:27:37.463Z,4.64
2023-04-15T04:30:05.697Z,4.65
2023-04-15T04:32:32.909Z,4.63
2023-04-15T04:35:00.567Z,4.61
2023-04-15T04:37:27.756Z,4.59
2023-04-15T04:39:55.053Z,4.58
2023-04-15T04:42:22.356Z,4.59
2023-04-15T04:44:49.671Z,4.55
2023-04-15T04:47:16.621Z,4.55
2023-04-15T04:49:43.494Z,4.49
2023-04-15T04:52:10.457Z,4.49
2023-04-15T04:54:37.353Z,4.54
2023-04-15T04:57:04.249Z,4.58
2023-04-15T04:59:31.683Z,4.60
2023-04-15T05:01:58.703Z,4.65
2023-04-15T05:04:26.458Z,4.65
2023-04-15T05:06:53.484Z,4.66
2023-04-15T05:09:20.590Z,4.69
2023-04-15T05:11:47.398Z,4.71
2023-04-15T05:14:14.333Z,4.75
2023-04-15T05:16:41.160Z,4.78
2023-04-15T05:19:08.288Z,4.74
2023-04-15T05:21:36.648Z,4.70
2023-04-15T05:24:05.554Z,4.73
2023-04-15T05:26:32.645Z,4.79
2023-04-15T05:28:59.882Z,4.81
2023-04-15T05:31:27.119Z,4.93
2023-04-15T05:33:54.141Z,4.97
2023-04-15T05:36:21.328Z,5.05
2023-04-15T05:38:48.164Z,5.14
2023-04-15T05:41:17.780Z,5.24
2023-04-15T05:43:46.644Z,5.25
2023-04-15T05:46:13.542Z,5.44
2023-04-15T05:48:40.473Z,5.61
2023-04-15T05:51:07.444Z,5.72
2023-04-15T05:53:34.304Z,5.83
2023-04-15T05:56:01.592Z,5.98
2023-04-15T05:58:28.532Z,6.15
2023-04-15T06:00:55.731Z,6.32
2023-04-15T06:03:23.193Z,6.51
2023-04-15T06:05:50.298Z,6.69
2023-04-15T06:08:17.203Z,6.89
2023-04-15T06:10:44.268Z,7.05
2023-04-15T06:13:11.573Z,7.20
2023-04-15T06:15:38.552Z,7.36
2023-04-15T06:18:05.503Z,7.52
2023-04-15T06:20:32.686Z,7.67
2023-04-15T06:22:59.947Z,7.82
2023-04-15T06:25:26.964Z,7.96
2023-04-15T06:27:53.851Z,8.11
2023-04-15T06:30:22.318Z,8.24
2023-04-15T06:32:51.158Z,8.30
2023-04-15T06:35:18.498Z,8.34
2023-04-15T06:37:45.701Z,8.37
2023-04-15T06:40:13.020Z,8.40
2023-04-15T06:42:40.050Z,8.42
2023-04-15T06:45:07.662Z,8.50
2023-04-15T06:47:34.525Z,8.56
2023-04-15T06:50:01.782Z,8.63
2023-04-15T06:52:28.813Z,8.70
2023-04-15T06:54:56.191Z,8.79
2023-04-15T06:57:23.354Z,8.92
2023-04-15T06:59:50.539Z,9.10
2023-04-15T07:02:18.642Z,9.20
2023-04-15T07:04:45.760Z,9.30
2023-04-15T07:07:12.833Z,9.35
2023-04-15T07:09:39.849Z,9.53
2023-04-15T07:12:06.866Z,9.71
2023-04-15T07:14:33.898Z,9.79
2023-04-15T07:17:01.124Z,9.80
2023-04-15T07:19:28.200Z,10.02
2023-04-15T07:21:55.176Z,10.20
2023-04-15T07:24:23.532Z,10.22
2023-04-15T07:26:50.399Z,10.18
2023-04-15T07:29:17.385Z,10.05
2023-04-15T07:31:44.238Z,10.05
2023-04-15T07:34:11.353Z,10.06
2023-04-15T07:36:38.388Z,10.01
2023-04-15T07:39:06.084Z,9.97
2023-04-15T07:41:33.171Z,9.88
2023-04-15T07:44:00.348Z,9.89
2023-04-15T07:46:27.589Z,9.95
2023-04-15T07:48:54.876Z,9.96
2023-04-15T07:51:21.846Z,9.89
2023-04-15T07:53:50.561Z,9.92
2023-04-15T07:56:17.692Z,9.89
2023-04-15T07:58:44.547Z,9.96
2023-04-15T08:01:11.926Z,9.99
2023-04-15T08:03:39.796Z,10.03
2023-04-15T08:06:06.961Z,10.14
2023-04-15T08:08:33.925Z,10.21
2023-04-15T08:11:00.922Z,10.38
2023-04-15T08:13:28.084Z,10.74
2023-04-15T08:16:21.634Z,10.76
2023-04-15T08:18:49.782Z,10.65
2023-04-15T08:21:17.864Z,10.74
2023-04-15T08:23:48.100Z,10.81
2023-04-15T08:26:15.252Z,10.96
2023-04-15T08:28:43.130Z,11.04
2023-04-15T08:31:10.105Z,10.96
2023-04-15T08:33:37.061Z,10.77
2023-04-15T08:36:04.669Z,10.63
2023-04-15T08:38:31.940Z,10.52
2023-04-15T08:41:02.203Z,10.61
2023-04-15T08:43:40.934Z,10.55
2023-04-15T08:46:10.191Z,10.42
2023-04-15T08:48:40.512Z,10.29
2023-04-15T08:51:08.534Z,10.25
2023-04-15T08:53:35.738Z,10.24
2023-04-15T08:56:07.746Z,10.24
2023-04-15T08:58:36.582Z,10.19
2023-04-15T09:01:03.591Z,10.23
2023-04-15T09:03:30.886Z,10.22
2023-04-15T09:05:58.460Z,10.16
2023-04-15T09:08:25.556Z,10.12
2023-04-15T09:10:54.489Z,10.09
2023-04-15T09:13:22.216Z,10.07
2023-04-15T09:15:49.356Z,10.06
2023-04-15T09:18:31.120Z,10.19
2023-04-15T09:21:15.104Z,10.19
2023-04-15T09:23:55.707Z,10.23
2023-04-15T09:26:36.508Z,10.32
2023-04-15T09:29:06.909Z,10.69
2023-04-15T09:31:34.083Z,10.91
2023-04-15T09:34:01.363Z,10.67
2023-04-15T09:36:31.819Z,10.39
2023-04-15T09:39:00.114Z,10.51
2023-04-15T09:41:28.627Z,10.47
2023-04-15T09:43:55.927Z,10.43
2023-04-15T09:46:44.708Z,10.73
2023-04-15T09:49:12.993Z,10.78
2023-04-15T09:51:39.875Z,10.94
2023-04-15T09:54:07.418Z,10.73
2023-04-15T09:56:41.634Z,10.76
2023-04-15T09:59:09.240Z,11.24
2023-04-15T10:01:37.276Z,11.44
2023-04-15T10:04:06.104Z,11.35
2023-04-15T10:06:34.217Z,11.28
2023-04-15T10:09:01.990Z,11.32
2023-04-15T10:11:31.619Z,11.13
2023-04-15T10:13:59.285Z,11.14
2023-04-15T10:16:29.440Z,11.11
2023-04-15T10:18:57.289Z,10.97
2023-04-15T10:21:24.887Z,11.30
2023-04-15T10:23:52.318Z,11.09
2023-04-15T10:26:20.341Z,10.97
2023-04-15T10:28:48.375Z,10.86
2023-04-15T10:31:17.075Z,10.90
2023-04-15T10:33:44.877Z,10.77
2023-04-15T10:36:12.716Z,10.82
2023-04-15T10:38:44.357Z,10.90
2023-04-15T10:41:21.899Z,10.94
2023-04-15T10:43:55.184Z,11.04
2023-04-15T10:46:24.890Z,11.01
2023-04-15T10:48:53.754Z,11.05
2023-04-15T10:51:28.852Z,11.06
2023-04-15T10:54:02.237Z,10.86
2023-04-15T10:56:30.753Z,10.86
2023-04-15T10:58:59.935Z,10.83
2023-04-15T11:02:02.596Z,10.75
2023-04-15T11:04:51.468Z,10.82
2023-04-15T11:07:47.123Z,10.61
2023-04-15T11:10:14.257Z,10.82
2023-04-15T11:12:42.000Z,11.21
2023-04-15T11:15:38.055Z,11.04
2023-04-15T11:18:25.229Z,10.92
2023-04-15T11:21:03.671Z,10.63
2023-04-15T11:23:36.037Z,10.62
2023-04-15T11:26:06.969Z,10.36
2023-04-15T11:28:34.318Z,10.25
2023-04-15T11:31:15.060Z,10.29
2023-04-15T11:33:48.099Z,10.20
2023-04-15T11:36:15.302Z,10.11
2023-04-15T11:38:47.784Z,10.13
2023-04-15T11:41:15.081Z,10.10
2023-04-15T11:43:42.951Z,10.03
2023-04-15T11:46:10.124Z,10.12
2023-04-15T11:48:37.227Z,10.07
2023-04-15T11:51:06.422Z,9.90
2023-04-15T11:53:46.666Z,9.87
2023-04-15T11:56:24.728Z,9.92
2023-04-15T11:59:02.549Z,9.85
2023-04-15T12:01:37.203Z,9.96
2023-04-15T12:04:15.835Z,10.14
2023-04-15T12:06:43.209Z,10.32
2023-04-15T12:09:12.459Z,10.09
2023-04-15T12:11:59.477Z,10.11
2023-04-15T12:14:28.610Z,9.96
2023-04-15T12:16:58.849Z,9.92
2023-04-15T12:19:28.995Z,9.92
2023-04-15T12:22:01.325Z,9.83
2023-04-15T12:24:31.449Z,9.69
2023-04-15T12:27:01.904Z,9.82
2023-04-15T12:29:32.734Z,9.95
2023-04-15T12:32:06.761Z,9.91
2023-04-15T12:34:36.290Z,9.87
2023-04-15T12:37:06.850Z,9.66
2023-04-15T12:39:41.937Z,9.72
2023-04-15T12:42:09.852Z,9.78
2023-04-15T12:44:37.662Z,9.59
2023-04-15T12:47:04.957Z,9.57
2023-04-15T12:49:32.993Z,9.64
2023-04-15T12:52:01.618Z,9.69
2023-04-15T12:54:30.273Z,9.93
2023-04-15T12:56:57.855Z,10.10
2023-04-15T12:59:25.645Z,9.85
2023-04-15T13:01:53.991Z,9.95
2023-04-15T13:04:22.426Z,9.64
2023-04-15T13:06:49.823Z,9.72
2023-04-15T13:09:16.938Z,9.71
2023-04-15T13:11:44.357Z,9.64
2023-04-15T13:14:13.192Z,9.90
2023-04-15T13:16:40.499Z,9.93
2023-04-15T13:19:07.606Z,10.23
2023-04-15T13:21:36.185Z,10.38
2023-04-15T13:24:04.846Z,10.16
2023-04-15T13:26:32.277Z,10.14
2023-04-15T13:28:59.559Z,10.02
2023-04-15T13:31:27.252Z,9.93
2023-04-15T13:33:54.919Z,9.93
2023-04-15T13:36:22.160Z,9.95
2023-04-15T13:38:51.446Z,9.96
2023-04-15T13:41:19.056Z,10.00
2023-04-15T13:43:46.366Z,10.00
2023-04-15T13:46:14.209Z,10.11
2023-04-15T13:48:41.648Z,10.28
2023-04-15T13:51:08.838Z,10.17
2023-04-15T13:53:39.130Z,10.11
2023-04-15T13:56:08.088Z,10.32
2023-04-15T13:58:34.994Z,10.27
2023-04-15T14:01:04.685Z,10.25
2023-04-15T14:03:32.942Z,10.10
2023-04-15T14:05:59.996Z,9.98
2023-04-15T14:08:27.172Z,9.98
2023-04-15T14:10:54.179Z,10.08
2023-04-15T14:13:21.121Z,10.09
2023-04-15T14:15:48.112Z,10.22
2023-04-15T14:18:15.409Z,10.24
2023-04-15T14:20:42.255Z,10.10
2023-04-15T14:23:09.240Z,10.12
2023-04-15T14:25:36.186Z,10.04
2023-04-15T14:28:03.825Z,10.00
2023-04-15T14:30:30.890Z,9.93
2023-04-15T14:32:57.978Z,10.02
2023-04-15T14:35:27.496Z,10.01
2023-04-15T14:37:55.383Z,10.11
2023-04-15T14:40:22.852Z,10.10
2023-04-15T14:42:50.258Z,10.02
2023-04-15T14:45:17.762Z,10.17
2023-04-15T14:47:45.255Z,10.02
2023-04-15T14:50:12.349Z,9.96
2023-04-15T14:52:39.337Z,9.79
2023-04-15T14:55:13.289Z,9.63
2023-04-15T14:57:41.919Z,9.77
2023-04-15T15:00:10.701Z,9.88
2023-04-15T15:02:40.441Z,9.74
2023-04-15T15:05:09.019Z,9.66
2023-04-15T15:07:37.420Z,9.63
2023-04-15T15:10:05.370Z,9.60
2023-04-15T15:12:32.975Z,9.54
2023-04-15T15:15:01.516Z,9.49
2023-04-15T15:17:28.744Z,9.60
2023-04-15T15:19:55.612Z,9.59
2023-04-15T15:22:22.656Z,9.61
2023-04-15T15:24:49.505Z,9.58
2023-04-15T15:27:16.385Z,9.70
2023-04-15T15:29:43.527Z,9.56
2023-04-15T15:32:10.545Z,9.49
2023-04-15T15:34:37.486Z,9.47
2023-04-15T15:37:04.383Z,9.45
2023-04-15T15:39:31.387Z,9.35
2023-04-15T15:41:58.280Z,9.30
2023-04-15T15:44:25.305Z,9.28
2023-04-15T15:46:52.419Z,9.21
2023-04-15T15:49:19.994Z,9.22
2023-04-15T15:51:46.935Z,9.20
2023-04-15T15:54:13.884Z,9.25
2023-04-15T15:56:42.208Z,9.23
2023-04-15T15:59:09.157Z,9.22
2023-04-15T16:01:36.401Z,9.08
2023-04-15T16:04:03.586Z,9.05
2023-04-15T16:06:32.761Z,9.08
2023-04-15T16:09:01.846Z,9.07
2023-04-15T16:11:29.425Z,9.03
2023-04-15T16:13:56.446Z,9.00
2023-04-15T16:16:24.589Z,8.98
2023-04-15T16:18:51.738Z,8.94
2023-04-15T16:21:20.426Z,8.94
2023-04-15T16:23:47.720Z,9.00
2023-04-15T16:26:14.911Z,9.04
2023-04-15T16:28:41.830Z,9.05
2023-04-15T16:31:10.724Z,9.06
2023-04-15T16:33:38.821Z,8.99
2023-04-15T16:36:05.775Z,8.91
2023-04-15T16:38:32.663Z,8.88
2023-04-15T16:41:01.552Z,8.92
2023-04-15T16:43:29.020Z,8.88
2023-04-15T16:45:56.120Z,8.89
2023-04-15T16:48:23.205Z,8.89
2023-04-15T16:50:50.499Z,8.86
2023-04-15T16:53:17.656Z,8.84
2023-04-15T16:55:44.507Z,8.86
2023-04-15T16:58:11.656Z,8.81
2023-04-15T17:00:38.821Z,8.80
2023-04-15T17:03:06.240Z,8.81
2023-04-15T17:05:33.689Z,8.83
2023-04-15T17:08:00.634Z,8.77
2023-04-15T17:10:28.237Z,8.73
2023-04-15T17:12:58.403Z,8.71
2023-04-15T17:15:26.190Z,8.67
2023-04-15T17:17:53.701Z,8.67
2023-04-15T17:20:21.086Z,8.66
2023-04-15T17:22:48.847Z,8.72
2023-04-15T17:25:16.010Z,8.70
2023-04-15T17:27:42.922Z,8.68
2023-04-15T17:30:10.204Z,8.71
2023-04-15T17:32:37.341Z,8.65
2023-04-15T17:35:06.418Z,8.66
2023-04-15T17:37:34.594Z,8.64
2023-04-15T17:40:01.960Z,8.67
2023-04-15T17:42:28.957Z,8.63
2023-04-15T17:44:55.871Z,8.62
2023-04-15T17:47:22.924Z,8.65
2023-04-15T17:49:50.276Z,8.64
2023-04-15T17:52:17.539Z,8.67
2023-04-15T17:54:46.018Z,8.68
2023-04-15T17:57:12.897Z,8.66
2023-04-15T17:59:44.007Z,8.67
2023-04-15T18:02:11.799Z,8.60
2023-04-15T18:04:39.755Z,8.61
2023-04-15T18:07:06.982Z,8.60
2023-04-15T18:09:33.917Z,8.60
2023-04-15T18:12:02.237Z,8.59
2023-04-15T18:14:34.752Z,8.61
2023-04-15T18:17:05.325Z,8.57
2023-04-15T18:19:32.803Z,8.52
2023-04-15T18:22:00.665Z,8.46
2023-04-15T18:24:28.307Z,8.47
2023-04-15T18:26:56.588Z,8.48
2023-04-15T18:29:23.680Z,8.49
2023-04-15T18:31:50.732Z,8.51
2023-04-15T18:34:18.063Z,8.46
2023-04-15T18:36:46.508Z,8.46
2023-04-15T18:39:13.486Z,8.48
2023-04-15T18:41:40.464Z,8.50
2023-04-15T18:44:07.430Z,8.48
2023-04-15T18:46:34.513Z,8.49
2023-04-15T18:49:01.731Z,8.47
2023-04-15T18:51:28.593Z,8.50
2023-04-15T18:53:55.751Z,8.47
2023-04-15T18:56:22.799Z,8.45
2023-04-15T18:59:19.069Z,8.47
2023-04-15T19:01:37.115Z,8.51
2023-04-15T19:04:04.068Z,8.51
2023-04-15T19:06:34.049Z,8.52
2023-04-15T19:09:01.288Z,8.57
2023-04-15T19:11:28.530Z,8.55
2023-04-15T19:13:55.680Z,8.55
2023-04-15T19:16:22.751Z,8.55
2023-04-15T19:18:49.667Z,8.57
2023-04-15T19:21:16.685Z,8.58
2023-04-15T19:23:43.894Z,8.54
2023-04-15T19:26:11.998Z,8.58
2023-04-15T19:28:38.991Z,8.58
2023-04-15T19:31:06.844Z,8.58
2023-04-15T19:33:33.971Z,8.57
2023-04-15T19:36:02.282Z,8.53
2023-04-15T19:38:30.664Z,8.56
2023-04-15T19:40:58.782Z,8.56
2023-04-15T19:43:26.368Z,8.57
2023-04-15T19:45:55.046Z,8.56
2023-04-15T19:48:24.860Z,8.57
2023-04-15T19:50:52.022Z,8.57
2023-04-15T19:53:19.374Z,8.57
2023-04-15T19:55:47.209Z,8.56
2023-04-15T19:58:14.210Z,8.60
2023-04-15T20:00:42.159Z,8.57
2023-04-15T20:03:09.698Z,8.55
2023-04-15T20:05:36.901Z,8.58
2023-04-15T20:08:03.848Z,8.60
2023-04-15T20:10:31.954Z,8.61
2023-04-15T20:12:59.029Z,8.62
2023-04-15T20:15:26.293Z,8.63
2023-04-15T20:17:53.578Z,8.64
2023-04-15T20:20:21.064Z,8.69
2023-04-15T20:22:48.166Z,8.69
2023-04-15T20:25:15.224Z,8.67
2023-04-15T20:27:42.255Z,8.66
2023-04-15T20:30:09.596Z,8.70
2023-04-15T20:32:36.764Z,8.68
2023-04-15T20:35:05.078Z,8.70
2023-04-15T20:37:33.658Z,8.71
2023-04-15T20:40:01.554Z,8.72
2023-04-15T20:42:33.747Z,8.76
2023-04-15T20:45:01.258Z,8.77
2023-04-15T20:47:28.693Z,8.77
2023-04-15T20:49:55.926Z,8.75
2023-04-15T20:52:23.061Z,8.74
2023-04-15T20:54:51.047Z,8.71
2023-04-15T20:57:18.361Z,8.71
2023-04-15T20:59:45.404Z,8.69
2023-04-15T21:02:12.464Z,8.70
2023-04-15T21:04:39.514Z,8.67
2023-04-15T21:07:06.607Z,8.73
2023-04-15T21:09:33.632Z,8.71
2023-04-15T21:12:02.201Z,8.68
2023-04-15T21:14:29.617Z,8.66
2023-04-15T21:16:59.788Z,8.65
2023-04-15T21:19:26.804Z,8.62
2023-04-15T21:21:53.841Z,8.60
2023-04-15T21:24:20.903Z,8.65
2023-04-15T21:26:47.785Z,8.65
2023-04-15T21:29:14.894Z,8.64
2023-04-15T21:31:42.154Z,8.63
2023-04-15T21:34:09.818Z,8.64
2023-04-15T21:36:37.849Z,8.68
2023-04-15T21:39:05.489Z,8.67
2023-04-15T21:41:36.698Z,8.69
2023-04-15T21:44:04.394Z,8.68
2023-04-15T21:46:32.991Z,8.69
2023-04-15T21:49:02.037Z,8.69
2023-04-15T21:51:28.990Z,8.71
2023-04-15T21:53:56.172Z,8.76
2023-04-15T21:56:24.414Z,8.73
2023-04-15T21:58:56.800Z,8.74
2023-04-15T22:01:25.091Z,8.77
2023-04-15T22:03:52.764Z,8.74
2023-04-15T22:06:19.859Z,8.76
2023-04-15T22:08:56.299Z,8.76
2023-04-15T22:11:33.982Z,8.74
2023-04-15T22:14:00.967Z,8.71
2023-04-15T22:16:28.429Z,8.71
2023-04-15T22:18:55.794Z,8.72
2023-04-15T22:21:23.377Z,8.73
2023-04-15T22:23:51.261Z,8.75
2023-04-15T22:26:18.307Z,8.75
2023-04-15T22:28:45.832Z,8.79
2023-04-15T22:31:13.778Z,8.79
2023-04-15T22:33:41.080Z,8.75
2023-04-15T22:36:08.242Z,8.71
2023-04-15T22:38:35.428Z,8.70
2023-04-15T22:41:02.435Z,8.70
2023-04-15T22:43:29.397Z,8.71
2023-04-15T22:45:56.761Z,8.74
2023-04-15T22:48:23.900Z,8.70
2023-04-15T22:50:50.911Z,8.72
2023-04-15T22:53:18.624Z,8.73
2023-04-15T22:55:47.592Z,8.71
2023-04-15T22:58:15.278Z,8.69
2023-04-15T23:00:42.271Z,8.68
2023-04-15T23:03:09.428Z,8.70
2023-04-15T23:05:36.794Z,8.71
2023-04-15T23:08:03.944Z,8.72
2023-04-15T23:10:31.028Z,8.73
2023-04-15T23:12:58.003Z,8.72
2023-04-15T23:15:25.424Z,8.70
2023-04-15T23:17:52.384Z,8.70
2023-04-15T23:20:19.240Z,8.72
2023-04-15T23:22:46.308Z,8.74
2023-04-15T23:25:13.355Z,8.76
2023-04-15T23:27:40.300Z,8.76
2023-04-15T23:30:07.790Z,8.80
2023-04-15T23:32:34.925Z,8.84
2023-04-15T23:35:02.148Z,8.83
2023-04-15T23:37:31.030Z,8.82
2023-04-15T23:39:58.075Z,8.83
2023-04-15T23:42:26.048Z,8.87
2023-04-15T23:44:53.092Z,8.84
2023-04-15T23:47:21.217Z,8.82
2023-04-15T23:49:48.408Z,8.79
2023-04-15T23:52:15.476Z,8.76
2023-04-15T23:54:42.611Z,8.76
2023-04-15T23:57:09.834Z,8.74
2023-04-15T23:59:36.721Z,8.73
